createdAt,value
2019-03-24T00:02:35.680Z,10.72
2019-03-24T00:05:08.080Z,10.69
2019-03-24T00:07:39.879Z,10.63
2019-03-24T00:10:12.035Z,10.62
2019-03-24T00:12:43.737Z,10.62
2019-03-24T00:15:25.412Z,10.53
2019-03-24T00:17:48.779Z,10.53
2019-03-24T00:20:20.149Z,10.51
2019-03-24T00:22:52.306Z,10.58
2019-03-24T00:25:23.903Z,10.55
2019-03-24T00:27:55.763Z,10.52
2019-03-24T00:30:27.022Z,10.46
2019-03-24T00:32:58.607Z,10.47
2019-03-24T00:35:30.469Z,10.45
2019-03-24T00:38:01.688Z,10.42
2019-03-24T00:40:33.137Z,10.38
2019-03-24T00:43:04.658Z,10.37
2019-03-24T00:45:37.088Z,10.36
2019-03-24T00:48:09.533Z,10.37
2019-03-24T00:50:40.824Z,10.35
2019-03-24T00:53:12.154Z,10.42
2019-03-24T00:55:43.797Z,10.35
2019-03-24T00:58:15.166Z,10.32
2019-03-24T01:00:51.482Z,10.34
2019-03-24T01:03:23.052Z,10.38
2019-03-24T01:05:54.456Z,10.36
2019-03-24T01:08:25.913Z,10.29
2019-03-24T01:10:57.294Z,10.32
2019-03-24T01:13:28.592Z,10.24
2019-03-24T01:16:00.339Z,10.21
2019-03-24T01:18:31.640Z,10.16
2019-03-24T01:21:02.945Z,10.19
2019-03-24T01:23:34.362Z,10.16
2019-03-24T01:26:06.246Z,10.08
2019-03-24T01:28:37.919Z,10.11
2019-03-24T01:31:09.257Z,10.12
2019-03-24T01:33:40.710Z,10.08
2019-03-24T01:36:12.023Z,10.03
2019-03-24T01:38:44.042Z,10.09
2019-03-24T01:41:15.338Z,9.98
2019-03-24T01:43:46.913Z,9.89
2019-03-24T01:46:18.312Z,9.90
2019-03-24T01:48:49.587Z,9.84
2019-03-24T01:51:21.159Z,9.76
2019-03-24T01:53:52.844Z,9.84
2019-03-24T01:56:25.260Z,9.79
2019-03-24T01:58:56.534Z,9.73
2019-03-24T02:01:27.978Z,9.78
2019-03-24T02:03:59.316Z,9.80
2019-03-24T02:06:30.988Z,9.73
2019-03-24T02:09:02.288Z,9.69
2019-03-24T02:11:33.549Z,9.71
2019-03-24T02:14:04.938Z,9.71
2019-03-24T02:16:36.214Z,9.71
2019-03-24T02:19:07.846Z,9.74
2019-03-24T02:21:39.301Z,9.75
2019-03-24T02:24:10.580Z,9.72
2019-03-24T02:26:41.891Z,9.68
2019-03-24T02:29:13.670Z,9.67
2019-03-24T02:31:45.631Z,9.64
2019-03-24T02:34:17.184Z,9.64
2019-03-24T02:36:48.614Z,9.61
2019-03-24T02:39:20.292Z,9.59
2019-03-24T02:41:51.840Z,9.59
2019-03-24T02:44:23.192Z,9.52
2019-03-24T02:46:54.515Z,9.48
2019-03-24T02:49:26.040Z,9.47
2019-03-24T02:51:57.315Z,9.51
2019-03-24T02:54:28.563Z,9.47
2019-03-24T02:57:00.048Z,9.42
2019-03-24T02:59:31.521Z,9.38
2019-03-24T03:02:02.828Z,9.46
2019-03-24T03:04:34.572Z,9.39
2019-03-24T03:07:05.903Z,9.42
2019-03-24T03:09:37.502Z,9.41
2019-03-24T03:12:08.905Z,9.38
2019-03-24T03:14:40.183Z,9.28
2019-03-24T03:17:11.780Z,9.25
2019-03-24T03:19:43.101Z,9.26
2019-03-24T03:22:14.414Z,9.24
2019-03-24T03:24:45.688Z,9.28
2019-03-24T03:27:17.140Z,9.29
2019-03-24T03:29:48.439Z,9.22
2019-03-24T03:32:20.061Z,9.18
2019-03-24T03:34:51.472Z,9.22
2019-03-24T03:37:22.825Z,9.20
2019-03-24T03:39:57.676Z,9.15
2019-03-24T03:42:27.261Z,9.14
2019-03-24T03:44:58.560Z,9.05
2019-03-24T03:47:30.318Z,9.03
2019-03-24T03:50:02.150Z,8.99
2019-03-24T03:52:33.466Z,9.00
2019-03-24T03:55:05.030Z,8.98
2019-03-24T03:57:36.508Z,8.95
2019-03-24T04:00:10.737Z,8.99
2019-03-24T04:02:42.062Z,8.95
2019-03-24T04:05:13.351Z,8.87
2019-03-24T04:07:44.997Z,8.91
2019-03-24T04:10:16.341Z,8.93
2019-03-24T04:12:47.758Z,8.93
2019-03-24T04:15:19.046Z,8.92
2019-03-24T04:17:50.494Z,8.82
2019-03-24T04:20:22.073Z,8.83
2019-03-24T04:22:53.336Z,8.80
2019-03-24T04:25:24.689Z,8.82
2019-03-24T04:27:55.999Z,8.77
2019-03-24T04:30:27.309Z,8.72
2019-03-24T04:32:58.976Z,8.74
2019-03-24T04:35:30.252Z,8.62
2019-03-24T04:38:01.802Z,8.64
2019-03-24T04:40:33.209Z,8.63
2019-03-24T04:43:04.908Z,8.56
2019-03-24T04:45:36.223Z,8.53
2019-03-24T04:48:07.607Z,8.61
2019-03-24T04:50:39.452Z,8.52
2019-03-24T04:53:10.747Z,8.54
2019-03-24T04:55:42.027Z,8.51
2019-03-24T04:58:13.348Z,8.50
2019-03-24T05:00:44.673Z,8.51
2019-03-24T05:03:15.972Z,8.47
2019-03-24T05:05:47.957Z,8.48
2019-03-24T05:08:19.550Z,8.44
2019-03-24T05:10:50.834Z,8.46
2019-03-24T05:13:22.644Z,8.51
2019-03-24T05:15:53.962Z,8.45
2019-03-24T05:18:25.243Z,8.42
2019-03-24T05:20:56.585Z,8.38
2019-03-24T05:23:28.163Z,8.44
2019-03-24T05:25:59.475Z,8.47
2019-03-24T05:28:30.865Z,8.36
2019-03-24T05:31:02.177Z,8.37
2019-03-24T05:33:33.403Z,8.29
2019-03-24T05:36:05.081Z,8.33
2019-03-24T05:38:36.875Z,8.32
2019-03-24T05:41:08.271Z,8.31
2019-03-24T05:43:40.392Z,8.29
2019-03-24T05:46:11.837Z,8.28
2019-03-24T05:48:43.154Z,8.26
2019-03-24T05:51:14.449Z,8.31
2019-03-24T05:53:47.041Z,8.27
2019-03-24T05:56:18.347Z,8.21
2019-03-24T05:58:49.630Z,8.26
2019-03-24T06:01:21.240Z,8.22
2019-03-24T06:03:52.766Z,8.21
2019-03-24T06:06:24.391Z,8.16
2019-03-24T06:08:55.622Z,8.16
2019-03-24T06:11:26.987Z,8.19
2019-03-24T06:13:58.673Z,8.14
2019-03-24T06:16:30.328Z,8.16
2019-03-24T06:19:01.643Z,8.16
2019-03-24T06:21:32.904Z,8.19
2019-03-24T06:24:04.663Z,8.25
2019-03-24T06:26:36.321Z,8.25
2019-03-24T06:29:07.636Z,8.21
2019-03-24T06:31:39.186Z,8.22
2019-03-24T06:34:10.859Z,8.19
2019-03-24T06:36:42.183Z,8.18
2019-03-24T06:39:13.524Z,8.23
2019-03-24T06:41:44.862Z,8.21
2019-03-24T06:44:16.388Z,8.27
2019-03-24T06:46:47.590Z,8.31
2019-03-24T06:49:18.896Z,8.26
2019-03-24T06:51:50.803Z,8.30
2019-03-24T06:54:22.500Z,8.36
2019-03-24T06:56:55.360Z,8.37
2019-03-24T06:59:26.766Z,8.48
2019-03-24T07:01:58.471Z,8.41
2019-03-24T07:04:30.116Z,8.46
2019-03-24T07:07:02.260Z,8.37
2019-03-24T07:09:34.036Z,8.47
2019-03-24T07:12:05.401Z,8.56
2019-03-24T07:14:40.343Z,8.70
2019-03-24T07:17:11.817Z,8.74
2019-03-24T07:19:43.618Z,8.80
2019-03-24T07:22:15.019Z,8.86
2019-03-24T07:24:46.560Z,8.77
2019-03-24T07:27:21.421Z,9.02
2019-03-24T07:29:53.194Z,8.99
2019-03-24T07:32:25.942Z,9.15
2019-03-24T07:34:57.389Z,9.25
2019-03-24T07:37:28.956Z,9.27
2019-03-24T07:40:00.540Z,9.40
2019-03-24T07:42:32.209Z,9.65
2019-03-24T07:45:04.094Z,10.04
2019-03-24T07:47:35.558Z,10.17
2019-03-24T07:50:09.219Z,10.26
2019-03-24T07:52:40.982Z,10.18
2019-03-24T07:55:12.439Z,10.52
2019-03-24T07:57:44.064Z,10.47
2019-03-24T08:00:25.266Z,10.79
2019-03-24T08:02:56.995Z,10.86
2019-03-24T08:05:28.517Z,11.26
2019-03-24T08:08:07.722Z,11.88
2019-03-24T08:10:39.096Z,12.23
2019-03-24T08:13:10.454Z,13.16
2019-03-24T08:15:42.162Z,13.68
2019-03-24T08:18:13.748Z,13.49
2019-03-24T08:20:46.232Z,13.02
2019-03-24T08:23:17.849Z,13.32
2019-03-24T08:25:49.166Z,12.94
2019-03-24T08:28:23.062Z,13.53
2019-03-24T08:30:53.839Z,13.56
2019-03-24T08:33:25.277Z,13.97
2019-03-24T08:35:56.869Z,14.14
2019-03-24T08:38:28.200Z,13.78
2019-03-24T08:41:00.291Z,13.79
2019-03-24T08:43:31.678Z,13.67
2019-03-24T08:46:03.173Z,13.57
2019-03-24T08:48:40.925Z,13.51
2019-03-24T08:51:07.857Z,13.26
2019-03-24T08:53:40.094Z,13.38
2019-03-24T08:56:12.422Z,13.23
2019-03-24T08:58:43.788Z,13.41
2019-03-24T09:01:15.178Z,13.08
2019-03-24T09:03:46.589Z,13.38
2019-03-24T09:06:17.963Z,13.20
2019-03-24T09:08:49.416Z,13.25
2019-03-24T09:11:30.890Z,14.10
2019-03-24T09:13:55.034Z,13.66
2019-03-24T09:16:26.557Z,14.14
2019-03-24T09:18:58.385Z,15.24
2019-03-24T09:21:29.763Z,14.96
2019-03-24T09:24:01.975Z,15.09
2019-03-24T09:26:33.307Z,15.33
2019-03-24T09:29:04.686Z,15.73
2019-03-24T09:31:36.043Z,16.21
2019-03-24T09:34:07.371Z,16.51
2019-03-24T09:36:39.123Z,16.64
2019-03-24T09:39:10.526Z,16.97
2019-03-24T09:41:41.942Z,17.04
2019-03-24T09:44:13.664Z,16.67
2019-03-24T09:46:45.969Z,17.56
2019-03-24T09:49:17.584Z,17.43
2019-03-24T09:51:48.899Z,16.97
2019-03-24T09:54:20.405Z,17.15
2019-03-24T09:56:51.834Z,17.01
2019-03-24T09:59:23.136Z,16.63
2019-03-24T10:01:54.492Z,16.52
2019-03-24T10:04:25.796Z,16.42
2019-03-24T10:06:57.267Z,16.52
2019-03-24T10:09:28.553Z,16.60
2019-03-24T10:12:00.510Z,16.14
2019-03-24T10:14:33.328Z,16.55
2019-03-24T10:17:13.791Z,16.94
2019-03-24T10:19:50.927Z,16.96
2019-03-24T10:22:22.457Z,17.11
2019-03-24T10:25:05.930Z,17.65
2019-03-24T10:27:38.088Z,18.47
2019-03-24T10:30:12.338Z,18.79
2019-03-24T10:32:44.221Z,19.09
2019-03-24T10:35:15.907Z,19.62
2019-03-24T10:37:48.065Z,19.19
2019-03-24T10:40:28.514Z,19.74
2019-03-24T10:42:54.983Z,19.99
2019-03-24T10:45:28.021Z,19.66
2019-03-24T10:48:00.115Z,20.22
2019-03-24T10:50:32.388Z,19.86
2019-03-24T10:53:08.245Z,19.58
2019-03-24T10:55:51.824Z,18.85
2019-03-24T10:58:24.191Z,19.64
2019-03-24T11:00:56.113Z,20.15
2019-03-24T11:03:27.665Z,19.83
2019-03-24T11:06:03.945Z,20.34
2019-03-24T11:08:35.805Z,20.18
2019-03-24T11:11:08.310Z,20.60
2019-03-24T11:13:39.768Z,20.96
2019-03-24T11:16:12.040Z,21.01
2019-03-24T11:18:45.333Z,20.84
2019-03-24T11:21:17.051Z,20.57
2019-03-24T11:23:48.725Z,20.13
2019-03-24T11:26:20.185Z,20.18
2019-03-24T11:28:51.718Z,20.72
2019-03-24T11:31:23.469Z,20.83
2019-03-24T11:33:55.571Z,20.86
2019-03-24T11:36:27.361Z,20.95
2019-03-24T11:38:59.306Z,20.77
2019-03-24T11:41:31.169Z,20.87
2019-03-24T11:44:03.378Z,21.25
2019-03-24T11:46:35.193Z,21.20
2019-03-24T11:49:16.357Z,21.26
2019-03-24T11:51:48.076Z,20.87
2019-03-24T11:54:21.167Z,20.94
2019-03-24T11:56:53.086Z,20.38
2019-03-24T11:59:24.877Z,20.31
2019-03-24T12:01:56.815Z,20.27
2019-03-24T12:04:28.502Z,20.60
2019-03-24T12:07:00.817Z,20.17
2019-03-24T12:09:33.602Z,20.33
2019-03-24T12:12:07.803Z,20.11
2019-03-24T12:14:45.421Z,19.96
2019-03-24T12:17:28.456Z,19.89
2019-03-24T12:20:07.926Z,19.81
2019-03-24T12:23:09.682Z,19.88
2019-03-24T12:25:44.190Z,19.48
2019-03-24T12:28:18.132Z,19.89
2019-03-24T12:30:56.422Z,19.92
2019-03-24T12:33:46.214Z,20.06
2019-03-24T12:36:19.749Z,19.95
2019-03-24T12:41:20.694Z,19.83
2019-03-24T12:43:52.633Z,19.69
2019-03-24T12:46:24.712Z,19.56
2019-03-24T12:48:56.153Z,19.54
2019-03-24T12:51:27.645Z,18.92
2019-03-24T12:53:59.659Z,19.21
2019-03-24T12:56:31.421Z,19.25
2019-03-24T12:59:02.947Z,19.06
2019-03-24T13:01:35.394Z,18.95
2019-03-24T13:04:06.883Z,19.22
2019-03-24T13:06:38.648Z,18.97
2019-03-24T13:09:10.823Z,18.72
2019-03-24T13:11:42.314Z,18.40
2019-03-24T13:14:13.706Z,18.58
2019-03-24T13:16:45.220Z,18.06
2019-03-24T13:19:16.858Z,18.06
2019-03-24T13:21:48.253Z,17.63
2019-03-24T13:24:19.829Z,17.11
2019-03-24T13:26:51.232Z,17.13
2019-03-24T13:29:22.771Z,16.89
2019-03-24T13:31:54.363Z,16.91
2019-03-24T13:34:25.807Z,16.90
2019-03-24T13:36:57.216Z,16.64
2019-03-24T13:39:29.013Z,16.44
2019-03-24T13:42:01.776Z,16.42
2019-03-24T13:44:33.837Z,16.50
2019-03-24T13:47:05.360Z,16.91
2019-03-24T13:49:37.134Z,16.37
2019-03-24T13:52:08.596Z,16.87
2019-03-24T13:54:40.040Z,16.90
2019-03-24T13:57:11.429Z,16.97
2019-03-24T13:59:43.133Z,17.00
2019-03-24T14:02:14.531Z,17.46
2019-03-24T14:04:47.506Z,17.54
2019-03-24T14:07:20.829Z,16.91
2019-03-24T14:09:52.190Z,17.19
2019-03-24T14:12:23.806Z,17.46
2019-03-24T14:14:55.406Z,17.41
2019-03-24T14:17:26.897Z,17.16
2019-03-24T14:19:58.172Z,17.38
2019-03-24T14:22:29.426Z,17.07
2019-03-24T14:25:00.654Z,17.30
2019-03-24T14:27:31.939Z,17.00
2019-03-24T14:30:03.624Z,16.68
2019-03-24T14:32:35.292Z,16.45
2019-03-24T14:35:07.028Z,16.65
2019-03-24T14:37:38.843Z,16.83
2019-03-24T14:40:10.624Z,16.88
2019-03-24T14:42:42.054Z,16.38
2019-03-24T14:45:13.676Z,16.38
2019-03-24T14:47:45.291Z,16.26
2019-03-24T14:50:16.690Z,15.90
2019-03-24T14:52:48.008Z,15.80
2019-03-24T14:55:19.436Z,15.89
2019-03-24T14:57:50.734Z,15.76
2019-03-24T15:00:37.352Z,15.67
2019-03-24T15:03:08.847Z,15.36
2019-03-24T15:05:40.133Z,15.50
2019-03-24T15:08:12.631Z,15.09
2019-03-24T15:10:44.269Z,15.28
2019-03-24T15:13:15.524Z,14.94
2019-03-24T15:15:46.956Z,14.99
2019-03-24T15:18:18.241Z,14.68
2019-03-24T15:20:49.550Z,14.66
2019-03-24T15:23:20.916Z,14.61
2019-03-24T15:25:52.213Z,14.52
2019-03-24T15:28:23.775Z,14.34
2019-03-24T15:30:56.066Z,14.18
2019-03-24T15:33:27.728Z,14.08
2019-03-24T15:35:59.278Z,13.78
2019-03-24T15:38:30.878Z,13.91
2019-03-24T15:41:02.236Z,13.65
2019-03-24T15:43:33.556Z,13.81
2019-03-24T15:46:05.485Z,13.69
2019-03-24T15:48:36.715Z,13.53
2019-03-24T15:51:16.318Z,13.51
2019-03-24T15:53:41.847Z,13.00
2019-03-24T15:56:13.403Z,13.00
2019-03-24T15:58:44.714Z,12.92
2019-03-24T16:01:16.043Z,12.81
2019-03-24T16:03:47.547Z,12.77
2019-03-24T16:06:18.930Z,12.70
2019-03-24T16:08:50.277Z,12.72
2019-03-24T16:11:21.575Z,12.58
2019-03-24T16:13:53.120Z,12.37
2019-03-24T16:16:24.536Z,12.42
2019-03-24T16:18:55.880Z,12.37
2019-03-24T16:21:30.177Z,12.34
2019-03-24T16:24:00.829Z,12.28
2019-03-24T16:26:32.181Z,12.30
2019-03-24T16:29:04.252Z,12.22
2019-03-24T16:31:35.654Z,12.17
2019-03-24T16:34:07.632Z,12.18
2019-03-24T16:36:39.265Z,12.15
2019-03-24T16:39:10.933Z,12.05
2019-03-24T16:41:42.344Z,11.97
2019-03-24T16:44:13.726Z,11.95
2019-03-24T16:46:45.491Z,11.94
2019-03-24T16:49:16.777Z,11.93
2019-03-24T16:51:48.478Z,11.87
2019-03-24T16:54:19.843Z,11.85
2019-03-24T16:56:51.170Z,11.83
2019-03-24T16:59:22.492Z,11.76
2019-03-24T17:01:54.071Z,11.70
2019-03-24T17:04:25.522Z,11.71
2019-03-24T17:06:56.878Z,11.67
2019-03-24T17:09:28.328Z,11.64
2019-03-24T17:11:59.648Z,11.57
2019-03-24T17:14:30.888Z,11.45
2019-03-24T17:17:02.606Z,11.44
2019-03-24T17:19:33.866Z,11.43
2019-03-24T17:22:05.249Z,11.38
2019-03-24T17:24:36.569Z,11.34
2019-03-24T17:27:07.924Z,11.33
2019-03-24T17:29:39.319Z,11.28
2019-03-24T17:32:11.217Z,11.20
2019-03-24T17:34:42.517Z,11.13
2019-03-24T17:37:13.801Z,11.09
2019-03-24T17:39:45.100Z,10.98
2019-03-24T17:42:16.750Z,10.95
2019-03-24T17:44:48.388Z,10.88
2019-03-24T17:47:19.805Z,10.92
2019-03-24T17:49:51.112Z,10.87
2019-03-24T17:52:22.443Z,10.77
2019-03-24T17:54:53.806Z,10.79
2019-03-24T17:57:25.288Z,10.65
2019-03-24T17:59:56.862Z,10.58
2019-03-24T18:02:28.204Z,10.54
2019-03-24T18:04:59.840Z,10.43
2019-03-24T18:07:31.196Z,10.33
2019-03-24T18:10:02.616Z,10.26
2019-03-24T18:12:33.936Z,10.16
2019-03-24T18:15:05.799Z,10.09
2019-03-24T18:17:37.143Z,10.02
2019-03-24T18:20:09.606Z,9.96
2019-03-24T18:22:41.156Z,9.94
2019-03-24T18:25:12.597Z,9.86
2019-03-24T18:27:43.955Z,9.80
2019-03-24T18:30:15.816Z,9.71
2019-03-24T18:32:47.183Z,9.64
2019-03-24T18:35:18.858Z,9.61
2019-03-24T18:37:50.485Z,9.54
2019-03-24T18:40:21.908Z,9.71
2019-03-24T18:42:53.588Z,9.70
2019-03-24T18:45:24.887Z,9.68
2019-03-24T18:47:56.304Z,9.65
2019-03-24T18:50:27.852Z,9.63
2019-03-24T18:52:59.535Z,9.62
2019-03-24T18:55:31.222Z,9.57
2019-03-24T18:58:02.819Z,9.48
2019-03-24T19:00:34.191Z,9.54
2019-03-24T19:03:05.747Z,9.49
2019-03-24T19:05:37.115Z,9.39
2019-03-24T19:08:09.271Z,9.40
2019-03-24T19:10:40.644Z,9.34
2019-03-24T19:13:12.166Z,9.24
2019-03-24T19:15:43.899Z,9.23
2019-03-24T19:18:15.394Z,9.21
2019-03-24T19:20:46.685Z,9.15
2019-03-24T19:23:18.827Z,9.01
2019-03-24T19:25:50.184Z,9.10
2019-03-24T19:28:21.492Z,9.00
2019-03-24T19:30:53.190Z,8.99
2019-03-24T19:33:24.571Z,8.88
2019-03-24T19:35:56.364Z,8.88
2019-03-24T19:38:28.215Z,8.77
2019-03-24T19:40:59.623Z,8.74
2019-03-24T19:43:30.910Z,8.71
2019-03-24T19:46:02.255Z,8.68
2019-03-24T19:48:34.009Z,8.68
2019-03-24T19:51:07.181Z,8.60
2019-03-24T19:53:38.597Z,8.53
2019-03-24T19:56:10.041Z,8.49
2019-03-24T19:58:41.440Z,8.43
2019-03-24T20:01:12.978Z,8.37
2019-03-24T20:03:44.984Z,8.48
2019-03-24T20:06:17.395Z,8.38
2019-03-24T20:08:50.946Z,8.36
2019-03-24T20:11:22.399Z,8.44
2019-03-24T20:13:54.300Z,8.42
2019-03-24T20:16:25.887Z,8.38
2019-03-24T20:18:57.295Z,8.32
2019-03-24T20:21:28.821Z,8.24
2019-03-24T20:24:01.402Z,8.22
2019-03-24T20:26:32.947Z,8.13
2019-03-24T20:29:05.604Z,8.11
2019-03-24T20:31:37.448Z,8.14
2019-03-24T20:34:09.537Z,8.09
2019-03-24T20:36:41.438Z,8.10
2019-03-24T20:39:13.297Z,8.06
2019-03-24T20:41:44.977Z,8.06
2019-03-24T20:44:17.570Z,7.98
2019-03-24T20:46:49.748Z,7.92
2019-03-24T20:49:22.157Z,7.87
2019-03-24T20:51:53.697Z,7.94
2019-03-24T20:54:25.863Z,7.88
2019-03-24T20:56:58.090Z,7.82
2019-03-24T20:59:33.555Z,7.89
2019-03-24T21:02:05.188Z,7.77
2019-03-24T21:04:36.606Z,7.74
2019-03-24T21:07:10.942Z,7.74
2019-03-24T21:09:42.719Z,7.63
2019-03-24T21:12:14.357Z,7.57
2019-03-24T21:14:45.677Z,7.51
2019-03-24T21:17:17.718Z,7.53
2019-03-24T21:19:49.140Z,7.47
2019-03-24T21:22:20.536Z,7.40
2019-03-24T21:24:52.021Z,7.47
2019-03-24T21:27:23.383Z,7.49
2019-03-24T21:29:55.129Z,7.39
2019-03-24T21:32:26.555Z,7.29
2019-03-24T21:34:57.903Z,7.34
2019-03-24T21:37:29.189Z,7.28
2019-03-24T21:40:00.691Z,7.21
2019-03-24T21:42:32.019Z,7.11
2019-03-24T21:45:03.694Z,7.09
2019-03-24T21:47:35.197Z,7.03
2019-03-24T21:50:07.168Z,6.98
2019-03-24T21:52:38.512Z,6.96
2019-03-24T21:55:10.353Z,6.93
2019-03-24T21:57:41.753Z,6.92
2019-03-24T22:00:14.457Z,6.84
2019-03-24T22:02:46.027Z,6.81
2019-03-24T22:05:17.617Z,6.78
2019-03-24T22:07:49.340Z,6.76
2019-03-24T22:10:21.146Z,6.71
2019-03-24T22:12:52.898Z,6.67
2019-03-24T22:15:24.323Z,6.64
2019-03-24T22:17:55.800Z,6.61
2019-03-24T22:20:27.607Z,6.61
2019-03-24T22:22:59.313Z,6.60
2019-03-24T22:25:30.703Z,6.61
2019-03-24T22:28:02.432Z,6.60
2019-03-24T22:30:33.925Z,6.63
2019-03-24T22:33:05.624Z,6.58
2019-03-24T22:35:38.413Z,6.51
2019-03-24T22:38:09.754Z,6.49
2019-03-24T22:40:41.042Z,6.47
2019-03-24T22:43:12.389Z,6.42
2019-03-24T22:45:44.326Z,6.43
2019-03-24T22:48:15.707Z,6.46
2019-03-24T22:50:47.335Z,6.40
2019-03-24T22:53:19.000Z,6.41
2019-03-24T22:55:50.638Z,6.35
2019-03-24T22:58:22.301Z,6.40
2019-03-24T23:00:55.337Z,6.31
2019-03-24T23:03:26.841Z,6.29
2019-03-24T23:05:58.164Z,6.32
2019-03-24T23:08:30.261Z,6.31
2019-03-24T23:11:01.616Z,6.34
2019-03-24T23:13:33.182Z,6.30
2019-03-24T23:16:04.598Z,6.23
2019-03-24T23:18:36.076Z,6.21
2019-03-24T23:21:07.381Z,6.24
2019-03-24T23:23:39.033Z,6.22
2019-03-24T23:26:10.314Z,6.22
2019-03-24T23:28:41.802Z,6.36
2019-03-24T23:31:13.179Z,6.30
2019-03-24T23:33:44.744Z,6.24
2019-03-24T23:36:16.055Z,6.19
2019-03-24T23:38:47.396Z,6.18
2019-03-24T23:41:19.023Z,6.22
2019-03-24T23:43:50.265Z,6.20
2019-03-24T23:46:21.660Z,6.24
2019-03-24T23:48:53.274Z,6.29
2019-03-24T23:51:24.878Z,6.24
2019-03-24T23:53:56.191Z,6.28
2019-03-24T23:56:27.471Z,6.29
2019-03-24T23:58:58.787Z,6.28
